createdAt,value
2022-11-18T00:01:15.924Z,1760
2022-11-18T00:06:34.568Z,1760
2022-11-18T00:11:53.313Z,1759
2022-11-18T00:17:11.540Z,1767
2022-11-18T00:22:30.209Z,1781
2022-11-18T00:27:48.213Z,1806
2022-11-18T00:33:07.009Z,1825
2022-11-18T00:38:25.576Z,1839
2022-11-18T00:43:44.070Z,1848
2022-11-18T00:49:02.269Z,1861
2022-11-18T00:54:20.768Z,1867
2022-11-18T00:59:39.543Z,1861
2022-11-18T01:04:57.813Z,1871
2022-11-18T01:10:16.303Z,1856
2022-11-18T01:15:34.497Z,1861
2022-11-18T01:20:53.308Z,1848
2022-11-18T01:26:11.245Z,1845
2022-11-18T01:31:29.712Z,1842
2022-11-18T01:36:48.244Z,1830
2022-11-18T01:42:06.441Z,1828
2022-11-18T01:47:24.674Z,1819
2022-11-18T01:52:46.293Z,1815
2022-11-18T01:58:10.128Z,1802
2022-11-18T02:03:28.594Z,1793
2022-11-18T02:08:47.110Z,1804
2022-11-18T02:14:05.330Z,1793
2022-11-18T02:19:23.799Z,1786
2022-11-18T02:24:42.316Z,1783
2022-11-18T02:30:00.525Z,1779
2022-11-18T02:35:18.981Z,1775
2022-11-18T02:40:37.488Z,1777
2022-11-18T02:45:55.967Z,1786
2022-11-18T02:51:14.190Z,1790
2022-11-18T02:56:32.986Z,1797
2022-11-18T03:01:51.804Z,1790
2022-11-18T03:07:10.494Z,1787
2022-11-18T03:12:29.438Z,1787
2022-11-18T03:17:47.364Z,1785
2022-11-18T03:23:05.850Z,1782
2022-11-18T03:28:24.093Z,1784
2022-11-18T03:33:42.273Z,1772
2022-11-18T03:39:00.199Z,1768
2022-11-18T03:44:18.779Z,1763
2022-11-18T03:49:37.251Z,1765
2022-11-18T03:54:55.715Z,1758
2022-11-18T04:00:14.237Z,1755
2022-11-18T04:05:32.455Z,1753
2022-11-18T04:10:51.208Z,1751
2022-11-18T04:16:09.691Z,1753
2022-11-18T04:21:27.905Z,1749
2022-11-18T04:26:46.711Z,1741
2022-11-18T04:32:05.495Z,1744
2022-11-18T04:37:23.966Z,1750
2022-11-18T04:42:42.720Z,1763
2022-11-18T04:48:03.668Z,1861
2022-11-18T04:53:22.161Z,1799
2022-11-18T04:58:40.633Z,1775
2022-11-18T05:03:59.484Z,1739
2022-11-18T05:09:18.326Z,1714
2022-11-18T05:14:38.036Z,1710
2022-11-18T05:19:56.533Z,1698
2022-11-18T05:25:14.754Z,1691
2022-11-18T05:30:33.217Z,1678
2022-11-18T05:35:55.043Z,1680
2022-11-18T05:41:13.887Z,1691
2022-11-18T05:46:31.783Z,1707
2022-11-18T05:51:50.016Z,1714
2022-11-18T05:57:08.480Z,1706
2022-11-18T06:02:27.252Z,1307
2022-11-18T06:07:46.030Z,1349
2022-11-18T06:13:04.749Z,1433
2022-11-18T06:18:22.689Z,1476
2022-11-18T06:23:41.152Z,1497
2022-11-18T06:28:59.378Z,1499
2022-11-18T06:34:18.127Z,1491
2022-11-18T06:39:36.678Z,1484
2022-11-18T06:44:55.299Z,1474
2022-11-18T06:50:14.206Z,1463
2022-11-18T06:55:32.704Z,1457
2022-11-18T07:00:51.658Z,1451
2022-11-18T07:06:09.938Z,1441
2022-11-18T07:11:28.461Z,1444
2022-11-18T07:16:47.375Z,1552
2022-11-18T07:22:06.220Z,1472
2022-11-18T07:27:24.715Z,1457
2022-11-18T07:32:42.900Z,1483
2022-11-18T07:38:01.658Z,1516
2022-11-18T07:43:19.622Z,1501
2022-11-18T07:48:38.079Z,1489
2022-11-18T07:53:56.874Z,1488
2022-11-18T07:59:15.390Z,1491
2022-11-18T08:04:34.706Z,1493
2022-11-18T08:09:52.924Z,1492
2022-11-18T08:15:11.454Z,1483
2022-11-18T08:20:29.397Z,1486
2022-11-18T08:25:48.148Z,1483
2022-11-18T08:31:06.405Z,1485
2022-11-18T08:36:25.179Z,1481
2022-11-18T08:41:43.975Z,1481
2022-11-18T08:47:02.781Z,1472
2022-11-18T08:52:21.578Z,1474
2022-11-18T08:57:40.346Z,1474
2022-11-18T09:02:58.888Z,1467
2022-11-18T09:08:16.867Z,1463
2022-11-18T09:20:32.094Z,1447
2022-11-18T09:25:50.275Z,1442
2022-11-18T09:31:08.802Z,1439
2022-11-18T09:36:27.604Z,1435
2022-11-18T09:41:30.398Z,1424
2022-11-18T09:46:49.163Z,1421
2022-11-18T09:52:07.701Z,1412
2022-11-18T09:57:25.897Z,1406
2022-11-18T10:02:44.377Z,1411
2022-11-18T10:08:02.912Z,1406
2022-11-18T10:13:21.631Z,1400
2022-11-18T10:24:28.327Z,1412
2022-11-18T10:29:46.794Z,1412
2022-11-18T10:35:05.567Z,1407
2022-11-18T10:40:23.822Z,1401
2022-11-18T10:45:42.076Z,1391
2022-11-18T10:51:00.553Z,1381
2022-11-18T10:56:20.850Z,1376
2022-11-18T11:01:39.212Z,1369
2022-11-18T11:06:57.428Z,1357
2022-11-18T11:12:15.830Z,1345
2022-11-18T11:17:34.622Z,1325
2022-11-18T11:22:53.410Z,1326
2022-11-18T11:33:31.760Z,1303
2022-11-18T11:38:49.998Z,1296
2022-11-18T11:44:08.537Z,1285
2022-11-18T11:49:27.375Z,1276
2022-11-18T11:54:46.154Z,1268
2022-11-18T12:00:04.697Z,1255
2022-11-18T12:05:23.058Z,1247
2022-11-18T12:10:41.811Z,1240
2022-11-18T12:16:00.607Z,1233
2022-11-18T12:21:19.072Z,1227
2022-11-18T12:26:37.599Z,1214
2022-11-18T12:31:56.084Z,1210
2022-11-18T12:37:14.355Z,1206
2022-11-18T12:42:32.817Z,1196
2022-11-18T12:47:51.433Z,1185
2022-11-18T12:53:09.374Z,1176
2022-11-18T12:58:28.191Z,1167
2022-11-18T13:03:47.040Z,1161
2022-11-18T13:09:05.838Z,1151
2022-11-18T13:14:24.324Z,1146
2022-11-18T13:19:42.654Z,1148
2022-11-18T13:25:01.013Z,1169
2022-11-18T13:30:19.828Z,1173
2022-11-18T13:35:38.611Z,1157
2022-11-18T13:40:57.351Z,1145
2022-11-18T13:46:15.859Z,1142
2022-11-18T13:51:34.091Z,1138
2022-11-18T13:56:52.589Z,1137
2022-11-18T14:02:10.851Z,1141
2022-11-18T14:07:29.410Z,1135
2022-11-18T14:12:47.958Z,1150
2022-11-18T14:18:06.687Z,1153
2022-11-18T14:23:25.220Z,1143
2022-11-18T14:28:43.663Z,1131
2022-11-18T14:34:02.448Z,1123
2022-11-18T14:39:31.438Z,1126
2022-11-18T14:44:50.435Z,1118
2022-11-18T14:50:08.895Z,1118
2022-11-18T14:55:27.747Z,1120
2022-11-18T15:00:46.301Z,1122
2022-11-18T15:06:05.418Z,1117
2022-11-18T15:11:23.936Z,1135
2022-11-18T15:16:42.690Z,1139
2022-11-18T15:22:01.190Z,1155
2022-11-18T15:27:19.413Z,1145
2022-11-18T15:32:37.865Z,1132
2022-11-18T15:37:56.477Z,1133
2022-11-18T15:43:14.746Z,1132
2022-11-18T15:48:32.817Z,1128
2022-11-18T15:53:51.594Z,1132
2022-11-18T15:59:10.381Z,1161
2022-11-18T16:04:29.144Z,1177
2022-11-18T16:09:47.886Z,1195
2022-11-18T16:15:06.794Z,1202
2022-11-18T16:20:25.317Z,1229
2022-11-18T16:25:44.042Z,1238
2022-11-18T16:31:02.588Z,1233
2022-11-18T16:36:21.060Z,1251
2022-11-18T16:41:39.837Z,1255
2022-11-18T16:46:58.726Z,1253
2022-11-18T16:52:16.926Z,1250
2022-11-18T16:57:35.716Z,1245
2022-11-18T17:02:54.218Z,1243
2022-11-18T17:08:12.743Z,1243
2022-11-18T17:13:31.485Z,1244
2022-11-18T17:18:50.013Z,1251
2022-11-18T17:24:08.485Z,1254
2022-11-18T17:29:26.992Z,1246
2022-11-18T17:34:45.264Z,1242
2022-11-18T17:40:03.751Z,1239
2022-11-18T17:45:22.227Z,1235
2022-11-18T17:50:40.843Z,1243
2022-11-18T17:56:03.595Z,1259
2022-11-18T18:01:22.196Z,1245
2022-11-18T18:06:41.402Z,1233
2022-11-18T18:11:59.956Z,1266
2022-11-18T18:17:03.228Z,1259
2022-11-18T18:22:22.020Z,1257
2022-11-18T18:27:40.488Z,1257
2022-11-18T18:32:58.971Z,1266
2022-11-18T18:38:17.514Z,1262
2022-11-18T18:43:35.422Z,1258
2022-11-18T18:48:53.924Z,1262
2022-11-18T18:54:12.164Z,1264
2022-11-18T18:59:30.417Z,1270
2022-11-18T19:04:48.595Z,1101
2022-11-18T19:10:07.102Z,1152
2022-11-18T19:15:25.959Z,1186
2022-11-18T19:20:44.997Z,1199
2022-11-18T19:26:09.138Z,1212
2022-11-18T19:31:27.593Z,1236
2022-11-18T19:36:46.376Z,1244
2022-11-18T19:42:04.880Z,1260
2022-11-18T19:47:23.351Z,1285
2022-11-18T19:52:41.268Z,1309
2022-11-18T19:57:59.223Z,1315
2022-11-18T20:03:17.937Z,1317
2022-11-18T20:08:20.788Z,1332
2022-11-18T20:13:40.376Z,1343
2022-11-18T20:18:59.159Z,1348
2022-11-18T20:24:17.902Z,1358
2022-11-18T20:29:36.127Z,1360
2022-11-18T20:34:54.742Z,1366
2022-11-18T20:39:57.940Z,1366
2022-11-18T20:45:16.735Z,1371
2022-11-18T20:50:35.607Z,1373
2022-11-18T20:55:54.363Z,1375
2022-11-18T21:01:01.553Z,1379
2022-11-18T21:06:20.146Z,1392
2022-11-18T21:11:38.648Z,1534
2022-11-18T21:16:43.302Z,1509
2022-11-18T21:22:02.108Z,1508
2022-11-18T21:27:20.858Z,1544
2022-11-18T21:32:39.646Z,1573
2022-11-18T21:37:58.145Z,1582
2022-11-18T21:43:16.902Z,1592
2022-11-18T21:48:35.701Z,1604
2022-11-18T21:53:54.188Z,1627
2022-11-18T21:59:12.667Z,1691
2022-11-18T22:04:31.226Z,1723
2022-11-18T22:09:49.400Z,1714
2022-11-18T22:15:08.213Z,1733
2022-11-18T22:20:26.812Z,1745
2022-11-18T22:25:44.740Z,1722
2022-11-18T22:31:03.230Z,1707
2022-11-18T22:36:21.763Z,1711
2022-11-18T22:41:40.274Z,1722
2022-11-18T22:46:58.461Z,1723
2022-11-18T22:52:17.952Z,1714
2022-11-18T22:57:36.435Z,1698
2022-11-18T23:02:54.906Z,1699
2022-11-18T23:08:13.691Z,1682
2022-11-18T23:13:32.576Z,1676
2022-11-18T23:18:50.796Z,1667
2022-11-18T23:24:09.576Z,1657
2022-11-18T23:29:28.064Z,1639
2022-11-18T23:34:46.233Z,1634
2022-11-18T23:40:04.274Z,1626
2022-11-18T23:45:22.835Z,1618
2022-11-18T23:50:41.017Z,1614
2022-11-18T23:55:59.549Z,1606
